Terminal Aerodrome Forecast
Issued by NWS

Home | Current Version | Previous Version | Text Only | Print | Product List | Glossary On
Versions: 1 2 3 4 5 6 7 8 9 10 11 12 13 14 15 16 17 18 19 20 21 22 23
000
FTUS43 KMQT 310531
TAFIWD
TAF
KIWD 310531Z 3106/0106 22006KT 4SM -SN OVC025
     FM311200 27010KT P6SM -SN OVC015
     FM311500 33012G20KT 5SM -SHSN BKN015
     FM312100 02012KT P6SM OVC015
      AMD LTD TO CLD VIS AND WIND=

USA.gov is the U.S. government's official web portal to all federal, state and local government web resources and services.